Time;durP1;ratioP1;P1;durP2;ratioP2;P2;SDS_P1;SDS_P2;PMS_P1;PMS_P2;Temp;Humidity;BMP_temperature;BMP_pressure;BME280_temperature;BME280_humidity;BME280_pressure;Samples;Min_cycle;Max_cycle;Signal;HPM_P1;HPM_P2
2023/09/23 00:00:24;;;;;;;1.30;0.85;;;;;;;11.34;100.00;97713.81;6108663;19;20006;-73
2023/09/23 00:02:25;;;;;;;1.10;0.90;;;;;;;11.34;100.00;97715.81;6110086;19;20330;-73
2023/09/23 00:04:26;;;;;;;2.55;1.10;;;;;;;11.32;100.00;97716.19;6109815;19;20911;-73
2023/09/23 00:06:27;;;;;;;1.50;1.00;;;;;;;11.33;100.00;97711.44;6109122;19;20407;-73
2023/09/23 00:08:28;;;;;;;1.10;0.82;;;;;;;11.28;100.00;97709.88;6109587;19;20077;-73
2023/09/23 00:10:29;;;;;;;2.53;1.33;;;;;;;11.23;100.00;97704.75;6108078;19;20007;-73
2023/09/23 00:12:30;;;;;;;1.35;0.90;;;;;;;11.21;100.00;97719.00;6110202;19;20437;-73
2023/09/23 00:14:31;;;;;;;3.15;1.20;;;;;;;11.17;100.00;97718.22;6108746;19;20353;-73
2023/09/23 00:16:31;;;;;;;1.08;0.98;;;;;;;11.20;100.00;97730.47;6110981;19;20010;-73
2023/09/23 00:18:32;;;;;;;1.38;1.10;;;;;;;11.22;100.00;97728.09;6109463;19;20010;-73
2023/09/23 00:20:33;;;;;;;1.30;1.00;;;;;;;11.26;100.00;97728.88;6107695;19;20014;-73
2023/09/23 00:22:34;;;;;;;2.67;1.13;;;;;;;11.28;100.00;97728.47;6110469;19;20342;-73
2023/09/23 00:24:35;;;;;;;2.25;1.70;;;;;;;11.28;100.00;97717.41;6108587;19;20017;-73
2023/09/23 00:26:35;;;;;;;1.23;1.00;;;;;;;11.32;100.00;97724.47;6109155;19;20362;-73
2023/09/23 00:28:36;;;;;;;1.95;0.80;;;;;;;11.39;100.00;97723.69;6108867;19;20036;-73
2023/09/23 00:30:38;;;;;;;1.83;1.00;;;;;;;11.40;100.00;97731.56;6108258;19;20011;-73
2023/09/23 00:32:41;;;;;;;1.30;1.10;;;;;;;11.42;100.00;97726.44;6109396;19;20018;-73
2023/09/23 00:34:41;;;;;;;2.50;0.95;;;;;;;11.41;100.00;97727.63;6108502;19;20510;-73
2023/09/23 00:36:42;;;;;;;0.80;0.80;;;;;;;11.41;100.00;97733.16;6108292;19;20048;-73
2023/09/23 00:38:42;;;;;;;1.55;0.90;;;;;;;11.40;100.00;97736.34;6108546;19;20010;-73
2023/09/23 00:40:44;;;;;;;2.13;1.00;;;;;;;11.35;100.00;97745.84;6108034;19;20029;-73
2023/09/23 00:42:47;;;;;;;1.47;0.93;;;;;;;11.31;100.00;97744.28;6107871;19;20014;-73
2023/09/23 00:44:48;;;;;;;1.98;1.10;;;;;;;11.30;100.00;97745.47;6109334;19;20006;-73
2023/09/23 00:46:48;;;;;;;1.60;1.00;;;;;;;11.25;100.00;97741.94;6109798;19;20024;-73
2023/09/23 00:48:50;;;;;;;1.00;0.90;;;;;;;11.21;100.00;97741.16;6106095;19;20450;-73
2023/09/23 00:50:53;;;;;;;2.67;1.20;;;;;;;11.21;100.00;97746.69;6108552;19;20006;-73
2023/09/23 00:52:55;;;;;;;1.00;0.90;;;;;;;11.16;100.00;97747.06;6108770;19;20315;-73
2023/09/23 00:54:56;;;;;;;1.30;1.00;;;;;;;11.13;100.00;97750.66;6109052;19;20007;-73
2023/09/23 00:57:00;;;;;;;1.60;1.00;;;;;;;11.13;100.00;97753.44;6108311;19;20011;-73
2023/09/23 00:59:00;;;;;;;1.13;1.00;;;;;;;11.10;100.00;97745.94;6106881;19;20028;-73
2023/09/23 01:01:01;;;;;;;1.25;1.00;;;;;;;11.11;100.00;97747.50;6108113;19;20007;-73
2023/09/23 01:03:02;;;;;;;2.72;1.02;;;;;;;11.08;100.00;97748.28;6109516;19;20040;-73
2023/09/23 01:05:05;;;;;;;1.10;1.00;;;;;;;11.09;100.00;97749.06;6108498;19;20044;-73
2023/09/23 01:07:05;;;;;;;1.30;1.00;;;;;;;11.06;100.00;97744.34;6108763;19;20011;-73
2023/09/23 01:09:19;;;;;;;1.10;1.00;;;;;;;11.08;100.00;97750.25;6106473;19;20042;-73
2023/09/23 01:11:21;;;;;;;3.83;1.20;;;;;;;11.14;100.00;97754.22;6108681;19;20049;-73
2023/09/23 01:13:29;;;;;;;2.08;1.23;;;;;;;11.18;100.00;97763.31;6108151;19;20023;-73
2023/09/23 01:15:31;;;;;;;1.45;1.10;;;;;;;11.17;100.00;97757.00;6107948;19;20014;-73
2023/09/23 01:17:31;;;;;;;1.58;1.10;;;;;;;11.20;100.00;97772.00;6106214;19;20097;-73
2023/09/23 01:19:31;;;;;;;1.25;0.98;;;;;;;11.27;100.00;97771.19;6107256;19;20023;-73
2023/09/23 01:21:32;;;;;;;2.25;1.20;;;;;;;11.28;100.00;97770.00;6107863;19;20007;-73
2023/09/23 01:23:36;;;;;;;1.10;1.00;;;;;;;11.31;100.00;97785.81;6107550;19;20091;-73
2023/09/23 01:25:38;;;;;;;1.10;1.00;;;;;;;11.34;100.00;97782.25;6107438;19;20010;-73
2023/09/23 01:27:39;;;;;;;2.40;1.35;;;;;;;11.33;100.00;97772.34;6107732;19;20059;-73
2023/09/23 01:29:39;;;;;;;1.77;0.80;;;;;;;11.34;100.00;97779.50;6106208;19;19998;-73
2023/09/23 01:31:39;;;;;;;0.80;0.80;;;;;;;11.37;100.00;97775.91;6107337;19;20426;-73
2023/09/23 01:33:40;;;;;;;1.60;1.08;;;;;;;11.43;100.00;97779.88;6108315;19;20454;-73
2023/09/23 01:35:41;;;;;;;1.02;0.82;;;;;;;11.42;100.00;97784.63;6107654;19;20011;-73
2023/09/23 01:37:44;;;;;;;1.10;1.00;;;;;;;11.42;100.00;97775.47;6105648;19;20002;-73
2023/09/23 01:39:47;;;;;;;;;;;;;;;11.40;100.00;97781.44;6106502;19;20098;-73
2023/09/23 01:41:49;;;;;;;1.27;1.10;;;;;;;11.40;100.00;97772.34;6107992;19;20404;-73
2023/09/23 01:43:49;;;;;;;1.08;0.90;;;;;;;11.38;100.00;97777.50;6106831;19;20466;-73
2023/09/23 01:45:49;;;;;;;3.03;1.00;;;;;;;11.32;100.00;97774.34;6107651;19;20014;-73
2023/09/23 01:47:50;;;;;;;0.90;0.80;;;;;;;11.35;100.00;97773.56;6104759;19;20007;-73
2023/09/23 01:49:50;;;;;;;2.92;1.10;;;;;;;11.32;100.00;97777.09;6098092;19;19995;-73
2023/09/23 01:51:52;;;;;;;2.15;0.98;;;;;;;11.34;100.00;97782.25;6106470;19;20019;-73
2023/09/23 01:53:53;;;;;;;0.80;0.80;;;;;;;11.39;100.00;97779.06;6106305;19;20006;-73
2023/09/23 01:55:54;;;;;;;2.25;0.90;;;;;;;11.41;100.00;97785.00;6112935;19;20027;-73
2023/09/23 01:57:54;;;;;;;1.05;0.80;;;;;;;11.46;100.00;97790.91;6112667;19;20011;-73
2023/09/23 01:59:55;;;;;;;0.95;0.70;;;;;;;11.44;100.00;97786.97;6110432;19;20011;-73
2023/09/23 02:01:55;;;;;;;1.30;0.80;;;;;;;11.46;100.00;97793.69;6112458;19;20038;-73
2023/09/23 02:03:57;;;;;;;0.80;0.80;;;;;;;11.60;100.00;97787.31;6112889;19;20010;-73
2023/09/23 02:05:57;;;;;;;1.87;0.80;;;;;;;11.58;100.00;97792.44;6111805;19;19999;-72
2023/09/23 02:07:57;;;;;;;1.98;0.70;;;;;;;11.65;100.00;97786.88;6111926;19;20013;-73
2023/09/23 02:09:58;;;;;;;1.45;0.88;;;;;;;11.59;100.00;97796.03;6109480;19;20014;-73
2023/09/23 02:11:59;;;;;;;0.70;0.70;;;;;;;11.53;100.00;97787.34;6111811;19;20041;-73
2023/09/23 02:14:01;;;;;;;2.38;0.80;;;;;;;11.54;100.00;97802.78;6111719;19;20010;-73
2023/09/23 02:16:01;;;;;;;1.58;0.68;;;;;;;11.51;100.00;97801.59;6111692;19;20006;-73
2023/09/23 02:18:04;;;;;;;2.08;0.80;;;;;;;11.49;100.00;97812.25;6111339;19;20057;-73
2023/09/23 02:20:11;;;;;;;;;;;;;;;11.48;100.00;97819.00;6111069;19;19999;-73
2023/09/23 02:22:11;;;;;;;1.27;0.80;;;;;;;11.64;100.00;97823.31;6111457;19;20278;-73
2023/09/23 02:24:11;;;;;;;0.70;0.60;;;;;;;11.59;100.00;97829.28;6108287;19;20009;-73
2023/09/23 02:26:12;;;;;;;1.55;0.80;;;;;;;11.59;100.00;97829.28;6109218;19;20458;-73
2023/09/23 02:28:12;;;;;;;0.80;0.70;;;;;;;11.57;100.00;97842.72;6108712;19;20367;-73
2023/09/23 02:30:14;;;;;;;1.13;0.70;;;;;;;11.51;100.00;97840.38;6106033;19;20658;-73
2023/09/23 02:32:14;;;;;;;0.95;0.80;;;;;;;11.51;100.00;97845.91;6109006;19;20003;-72
2023/09/23 02:34:20;;;;;;;1.27;0.80;;;;;;;11.58;100.00;97844.31;6108316;19;20396;-72
2023/09/23 02:36:20;;;;;;;1.17;0.98;;;;;;;11.60;100.00;97850.25;6108640;19;20003;-72
2023/09/23 02:38:21;;;;;;;1.60;0.60;;;;;;;11.60;100.00;97842.72;6107416;19;20421;-72
2023/09/23 02:40:21;;;;;;;0.95;0.73;;;;;;;11.59;100.00;97841.16;6106919;19;20029;-72
2023/09/23 02:42:22;;;;;;;0.80;0.80;;;;;;;11.55;100.00;97845.91;6109002;19;20461;-72
2023/09/23 02:44:27;;;;;;;0.70;0.70;;;;;;;11.52;100.00;97835.63;6108745;19;20013;-72
2023/09/23 02:46:27;;;;;;;0.70;0.70;;;;;;;11.52;100.00;97843.94;6107688;19;20006;-72
2023/09/23 02:48:28;;;;;;;1.40;0.77;;;;;;;11.46;100.00;97848.31;6105774;19;20094;-72
2023/09/23 02:50:29;;;;;;;1.35;0.80;;;;;;;11.47;100.00;97858.19;6105610;19;20010;-72
2023/09/23 02:52:29;;;;;;;0.75;0.70;;;;;;;11.43;100.00;97857.41;6107071;19;20525;-72
2023/09/23 02:54:30;;;;;;;0.75;0.70;;;;;;;11.39;100.00;97862.16;6109171;19;20007;-72
2023/09/23 02:56:30;;;;;;;1.05;0.80;;;;;;;11.36;100.00;97863.75;6109306;19;20308;-72
2023/09/23 02:58:30;;;;;;;0.82;0.70;;;;;;;11.34;100.00;97854.28;6108826;19;20022;-72
2023/09/23 03:00:33;;;;;;;2.47;0.70;;;;;;;11.33;100.00;97860.97;6107999;19;20041;-72
2023/09/23 03:02:33;;;;;;;1.58;0.90;;;;;;;11.34;100.00;97866.13;6109572;19;20066;-72
2023/09/23 03:04:34;;;;;;;1.10;0.70;;;;;;;11.34;100.00;97871.69;6108960;19;20028;-72
2023/09/23 03:06:38;;;;;;;1.23;0.73;;;;;;;11.32;100.00;97868.50;6109166;19;20021;-72
2023/09/23 03:08:38;;;;;;;1.17;0.85;;;;;;;11.36;100.00;97877.59;6108266;19;20006;-72
2023/09/23 03:10:41;;;;;;;0.90;0.90;;;;;;;11.36;100.00;97879.59;6108060;19;20010;-72
2023/09/23 03:12:50;;;;;;;0.75;0.68;;;;;;;11.38;100.00;97882.75;6110118;19;20338;-72
2023/09/23 03:14:52;;;;;;;1.77;0.80;;;;;;;11.36;100.00;97883.13;6108624;19;20353;-72
2023/09/23 03:16:54;;;;;;;1.20;0.70;;;;;;;11.36;100.00;97891.44;6109372;19;20081;-72
2023/09/23 03:18:59;;;;;;;0.80;0.80;;;;;;;11.39;100.00;97889.84;6107849;19;20014;-72
2023/09/23 03:21:08;;;;;;;0.60;0.60;;;;;;;11.35;100.00;97898.19;6109750;19;20013;-72
2023/09/23 03:23:10;;;;;;;0.93;0.60;;;;;;;11.36;100.00;97899.75;6109133;19;20494;-72
2023/09/23 03:25:11;;;;;;;2.97;0.73;;;;;;;11.39;100.00;97900.94;6108668;19;20070;-72
2023/09/23 03:27:11;;;;;;;0.73;0.73;;;;;;;11.36;100.00;97902.53;6109099;19;20115;-72
2023/09/23 03:29:13;;;;;;;0.68;0.65;;;;;;;11.32;100.00;97895.41;6107871;19;20014;-72
2023/09/23 03:31:14;;;;;;;1.03;0.93;;;;;;;11.27;100.00;97893.03;6108070;19;20437;-72
2023/09/23 03:33:18;;;;;;;1.20;0.80;;;;;;;11.28;100.00;97900.94;6108972;19;20038;-72
2023/09/23 03:35:23;;;;;;;0.90;0.80;;;;;;;11.24;100.00;97902.91;6107477;19;20011;-72
2023/09/23 03:37:25;;;;;;;1.58;0.90;;;;;;;11.19;100.00;97901.34;6108540;19;20030;-72
2023/09/23 03:39:26;;;;;;;0.90;0.88;;;;;;;11.19;100.00;97909.66;6107660;19;20007;-72
2023/09/23 03:41:28;;;;;;;1.13;0.90;;;;;;;11.21;100.00;97910.03;6108864;19;20577;-72
2023/09/23 03:43:29;;;;;;;0.77;0.77;;;;;;;11.20;100.00;97918.75;6108177;19;20098;-72
2023/09/23 03:45:34;;;;;;;0.63;0.60;;;;;;;11.20;100.00;97914.00;6108335;19;20011;-72
2023/09/23 03:47:36;;;;;;;1.02;0.93;;;;;;;11.19;100.00;97912.44;6106267;19;20774;-72
2023/09/23 03:49:37;;;;;;;1.75;0.77;;;;;;;11.18;100.00;97908.09;6105102;19;20086;-72
2023/09/23 03:51:37;;;;;;;0.88;0.80;;;;;;;11.15;100.00;97914.38;6109688;19;20018;-72
2023/09/23 03:53:37;;;;;;;1.00;0.82;;;;;;;11.11;100.00;97919.16;6110164;19;20034;-72
2023/09/23 03:55:39;;;;;;;1.55;0.90;;;;;;;11.12;100.00;97917.16;6110297;19;20066;-72
2023/09/23 03:57:40;;;;;;;0.95;0.80;;;;;;;11.07;100.00;97912.81;6109126;19;20011;-72
2023/09/23 03:59:41;;;;;;;0.90;0.88;;;;;;;11.07;100.00;97917.56;6108088;19;20050;-72
2023/09/23 04:01:42;;;;;;;0.90;0.80;;;;;;;11.13;100.00;97919.53;6110694;19;20462;-72
2023/09/23 04:03:43;;;;;;;1.45;0.65;;;;;;;11.13;100.00;97922.31;6108934;19;20009;-72
2023/09/23 04:05:43;;;;;;;0.73;0.73;;;;;;;11.12;100.00;97925.47;6109559;19;20081;-72
2023/09/23 04:07:50;;;;;;;1.02;0.80;;;;;;;11.08;100.00;97919.91;6109723;19;20365;-72
2023/09/23 04:09:50;;;;;;;1.10;0.70;;;;;;;11.13;100.00;97932.59;6108406;19;20025;-72
2023/09/23 04:11:52;;;;;;;0.80;0.75;;;;;;;11.10;100.00;97933.38;6109927;19;20011;-72
2023/09/23 04:13:53;;;;;;;1.52;0.85;;;;;;;11.06;100.00;97932.59;6109514;19;20025;-72
2023/09/23 04:15:57;;;;;;;1.88;1.00;;;;;;;11.06;100.00;97941.69;6109033;19;20009;-72
2023/09/23 04:17:58;;;;;;;0.85;0.65;;;;;;;11.01;100.00;97942.09;6106899;19;20072;-72
2023/09/23 04:19:58;;;;;;;1.20;0.88;;;;;;;11.01;100.00;97941.28;6108070;19;20470;-72
2023/09/23 04:21:58;;;;;;;1.27;0.82;;;;;;;10.98;100.00;97951.16;6109312;19;20007;-72
2023/09/23 04:24:00;;;;;;;0.80;0.77;;;;;;;10.95;100.00;97954.72;6108907;19;20002;-72
2023/09/23 04:26:03;;;;;;;1.17;1.02;;;;;;;10.86;100.00;97952.34;6108590;19;20066;-72
2023/09/23 04:28:03;;;;;;;0.85;0.85;;;;;;;10.87;100.00;97950.38;6109199;19;20006;-73
2023/09/23 04:30:12;;;;;;;1.08;0.90;;;;;;;10.89;100.00;97956.28;6107475;19;20011;-73
2023/09/23 04:32:12;;;;;;;0.80;0.70;;;;;;;10.83;100.00;97958.63;6108407;19;20011;-72
2023/09/23 04:34:14;;;;;;;1.23;0.82;;;;;;;10.78;100.00;97963.78;6108348;19;20346;-72
2023/09/23 04:36:15;;;;;;;0.77;0.77;;;;;;;10.74;100.00;97974.03;6108796;19;20399;-72
2023/09/23 04:38:15;;;;;;;0.90;0.73;;;;;;;10.69;100.00;97967.72;6107555;19;20007;-72
2023/09/23 04:40:18;;;;;;;1.30;1.00;;;;;;;10.64;100.00;97962.56;6108207;19;19998;-72
2023/09/23 04:42:18;;;;;;;3.85;0.80;;;;;;;10.62;100.00;97964.91;6108938;19;20036;-72
2023/09/23 04:44:18;;;;;;;0.80;0.80;;;;;;;10.63;100.00;97965.72;6108666;19;20011;-72
2023/09/23 04:46:19;;;;;;;0.63;0.63;;;;;;;10.59;100.00;97965.72;6108110;19;20011;-72
2023/09/23 04:48:20;;;;;;;0.60;0.60;;;;;;;10.56;100.00;97974.78;6105157;19;20331;-72
2023/09/23 04:50:23;;;;;;;1.00;0.80;;;;;;;10.52;100.00;97967.66;6106721;19;23117;-72
2023/09/23 04:52:23;;;;;;;;;;;;;;;10.52;100.00;97973.19;6109575;19;20011;-72
2023/09/23 04:54:23;;;;;;;2.13;0.73;;;;;;;10.48;100.00;97983.44;6108143;19;19929;-72
2023/09/23 04:56:24;;;;;;;1.25;0.90;;;;;;;10.43;100.00;97978.31;6108340;19;20380;-72
2023/09/23 04:58:24;;;;;;;0.80;0.80;;;;;;;10.43;100.00;98001.22;6107377;19;20542;-72
2023/09/23 05:00:26;;;;;;;1.90;0.85;;;;;;;10.34;100.00;98004.34;6106664;19;20022;-72
2023/09/23 05:02:26;;;;;;;2.65;1.08;;;;;;;10.33;100.00;98007.47;6107574;19;20010;-72
2023/09/23 05:04:27;;;;;;;1.45;0.98;;;;;;;10.26;100.00;98019.31;6107515;19;20024;-72
2023/09/23 05:06:27;;;;;;;1.10;1.00;;;;;;;10.24;100.00;98029.16;6108259;19;20466;-72
2023/09/23 05:08:27;;;;;;;2.65;1.20;;;;;;;10.21;100.00;98014.09;6107275;19;20017;-72
2023/09/23 05:10:28;;;;;;;2.08;0.98;;;;;;;10.29;100.00;98026.03;6106820;19;20006;-72
2023/09/23 05:12:29;;;;;;;0.95;0.85;;;;;;;10.21;100.00;98021.59;6108199;19;20756;-72
2023/09/23 05:14:29;;;;;;;1.00;0.90;;;;;;;10.16;100.00;98003.41;6107397;19;20007;-72
2023/09/23 05:16:30;;;;;;;1.95;1.23;;;;;;;10.15;100.00;98021.16;6106832;19;20011;-72
2023/09/23 05:18:30;;;;;;;1.65;1.00;;;;;;;10.10;100.00;98018.78;6107298;19;20011;-72
2023/09/23 05:20:31;;;;;;;0.98;0.73;;;;;;;10.06;100.00;98013.22;6107057;19;20328;-72
2023/09/23 05:22:31;;;;;;;1.10;1.00;;;;;;;10.04;100.00;98018.34;6106443;19;20010;-72
2023/09/23 05:24:31;;;;;;;2.00;0.95;;;;;;;10.01;100.00;98030.19;6105529;19;19998;-72
2023/09/23 05:26:33;;;;;;;3.22;1.08;;;;;;;9.96;100.00;98027.78;6105189;19;20006;-72
2023/09/23 05:28:33;;;;;;;2.08;1.10;;;;;;;9.94;100.00;98032.91;6103580;19;20026;-72
2023/09/23 05:30:34;;;;;;;1.70;1.02;;;;;;;9.90;100.00;98034.84;6106553;19;20006;-72
2023/09/23 05:32:37;;;;;;;2.38;1.00;;;;;;;9.90;100.00;98036.81;6110857;19;20247;-72
2023/09/23 05:34:39;;;;;;;2.40;1.20;;;;;;;9.91;100.00;98035.63;6110032;19;20505;-72
2023/09/23 05:36:40;;;;;;;3.03;1.30;;;;;;;9.91;100.00;98044.69;6108683;19;20408;-72
2023/09/23 05:38:40;;;;;;;1.42;1.10;;;;;;;9.91;100.00;98052.19;6109010;19;20046;-72
2023/09/23 05:40:41;;;;;;;1.52;1.30;;;;;;;9.91;100.00;98060.50;6106256;19;20015;-72
2023/09/23 05:42:41;;;;;;;3.35;1.13;;;;;;;9.91;100.00;98055.75;6109506;19;20756;-72
2023/09/23 05:44:42;;;;;;;1.60;1.40;;;;;;;9.94;100.00;98057.78;6109070;19;20018;-72
2023/09/23 05:46:42;;;;;;;2.13;1.35;;;;;;;9.99;100.00;98067.66;6109142;19;20007;-72
2023/09/23 05:48:43;;;;;;;1.67;1.33;;;;;;;9.98;100.00;98066.06;6107379;19;20137;-72
2023/09/23 05:50:43;;;;;;;3.53;1.40;;;;;;;10.00;100.00;98074.78;6108016;19;20011;-72
2023/09/23 05:52:45;;;;;;;2.20;1.38;;;;;;;10.00;100.00;98078.31;6108689;19;20045;-72
2023/09/23 05:54:46;;;;;;;3.83;1.33;;;;;;;10.01;100.00;98085.47;6109100;19;20003;-72
2023/09/23 05:56:46;;;;;;;3.72;1.45;;;;;;;10.05;100.00;98093.78;6111904;19;20066;-72
2023/09/23 05:58:46;;;;;;;1.67;1.30;;;;;;;10.13;100.00;98093.44;6110664;19;20026;-72
2023/09/23 06:00:47;;;;;;;1.50;1.40;;;;;;;10.17;100.00;98093.44;6111691;19;20006;-72
2023/09/23 06:02:48;;;;;;;1.98;1.23;;;;;;;10.20;100.00;98101.00;6112700;19;20018;-72
2023/09/23 06:04:48;;;;;;;2.33;1.75;;;;;;;10.26;100.00;98104.19;6111097;19;20491;-72
2023/09/23 06:06:48;;;;;;;1.75;1.30;;;;;;;10.29;100.00;98106.22;6111517;19;20027;-72
2023/09/23 06:08:50;;;;;;;2.53;1.33;;;;;;;10.35;100.00;98115.75;6111988;19;20011;-72
2023/09/23 06:10:52;;;;;;;1.42;1.05;;;;;;;10.37;100.00;98119.69;6110692;19;20332;-72
2023/09/23 06:12:52;;;;;;;1.65;1.27;;;;;;;10.48;100.00;98127.25;6111863;19;20098;-72
2023/09/23 06:14:53;;;;;;;2.63;1.40;;;;;;;10.52;100.00;98130.84;6111045;19;20007;-72
2023/09/23 06:16:53;;;;;;;2.17;1.33;;;;;;;10.55;100.00;98136.41;6112154;19;20014;-72
2023/09/23 06:18:54;;;;;;;1.70;1.30;;;;;;;10.56;100.00;98132.44;6111809;19;20073;-72
2023/09/23 06:21:01;;;;;;;1.45;1.35;;;;;;;10.64;100.00;98134.06;6110625;19;20353;-72
2023/09/23 06:23:02;;;;;;;1.02;0.90;;;;;;;10.65;100.00;98140.41;6111935;19;20011;-72
2023/09/23 06:25:03;;;;;;;2.42;1.27;;;;;;;10.69;100.00;98138.47;6111913;19;20003;-72
2023/09/23 06:27:03;;;;;;;5.28;1.30;;;;;;;10.69;100.00;98142.03;6111230;19;20534;-72
2023/09/23 06:29:04;;;;;;;1.23;1.10;;;;;;;10.75;100.00;98147.97;6109978;19;20112;-72
2023/09/23 06:31:08;;;;;;;1.27;1.10;;;;;;;10.76;100.00;98155.09;6111694;19;19999;-72
2023/09/23 06:33:09;;;;;;;1.20;1.10;;;;;;;10.78;100.00;98149.19;6112502;19;20369;-72
2023/09/23 06:35:14;;;;;;;2.20;1.30;;;;;;;10.80;100.00;98141.28;6111834;19;20009;-72
2023/09/23 06:37:14;;;;;;;5.80;1.40;;;;;;;10.83;100.00;98141.28;6111526;19;20478;-72
2023/09/23 06:39:15;;;;;;;4.18;1.50;;;;;;;10.90;100.00;98148.84;6110254;19;20017;-72
2023/09/23 06:41:15;;;;;;;2.40;1.38;;;;;;;11.02;100.00;98153.25;6111750;19;20002;-72
2023/09/23 06:43:16;;;;;;;1.60;1.20;;;;;;;10.99;100.00;98154.81;6111010;19;20308;-72
2023/09/23 06:45:18;;;;;;;2.95;1.33;;;;;;;10.99;100.00;98160.34;6110951;19;20014;-72
2023/09/23 06:47:20;;;;;;;2.20;1.30;;;;;;;11.05;100.00;98167.09;6110291;19;20015;-72
2023/09/23 06:49:20;;;;;;;3.75;2.03;;;;;;;11.11;100.00;98173.06;6107197;19;20014;-72
2023/09/23 06:51:21;;;;;;;1.75;1.20;;;;;;;11.14;100.00;98184.16;6108920;19;20022;-72
2023/09/23 06:53:21;;;;;;;2.53;1.27;;;;;;;11.12;100.00;98180.19;6110680;19;20027;-72
2023/09/23 06:55:22;;;;;;;3.42;1.40;;;;;;;11.17;100.00;98191.69;6111164;19;20755;-72
2023/09/23 06:57:22;;;;;;;1.92;1.42;;;;;;;11.22;100.00;98191.31;6110843;19;20335;-72
2023/09/23 06:59:23;;;;;;;2.40;1.30;;;;;;;11.33;100.00;98196.09;6109797;19;20007;-72
2023/09/23 07:01:23;;;;;;;1.70;1.50;;;;;;;11.38;100.00;98204.03;6109961;19;20003;-73
2023/09/23 07:03:23;;;;;;;2.78;1.40;;;;;;;11.39;100.00;98205.63;6112002;19;20062;-72
2023/09/23 07:05:24;;;;;;;1.63;1.40;;;;;;;11.41;100.00;98208.78;6110682;19;20010;-72
2023/09/23 07:07:24;;;;;;;1.98;1.50;;;;;;;11.42;100.00;98215.91;6108738;19;20339;-72
2023/09/23 07:09:24;;;;;;;2.40;1.60;;;;;;;11.43;100.00;98218.31;6109714;19;20007;-72
2023/09/23 07:11:25;;;;;;;1.80;1.30;;;;;;;11.50;100.00;98228.59;6109863;19;20459;-72
2023/09/23 07:13:25;;;;;;;3.88;1.20;;;;;;;11.53;100.00;98227.84;6110247;19;20006;-72
2023/09/23 07:15:26;;;;;;;2.08;1.17;;;;;;;11.55;100.00;98228.25;6111856;19;20023;-72
2023/09/23 07:17:27;;;;;;;1.50;1.10;;;;;;;11.59;100.00;98217.97;6111097;19;20036;-72
2023/09/23 07:19:27;;;;;;;2.20;1.20;;;;;;;11.66;100.00;98223.50;6108085;19;20481;-72
2023/09/23 07:21:28;;;;;;;1.17;1.08;;;;;;;11.74;100.00;98225.13;6109528;19;20020;-72
2023/09/23 07:23:28;;;;;;;2.28;1.35;;;;;;;11.77;100.00;98229.09;6108640;19;20006;-72
2023/09/23 07:25:29;;;;;;;1.63;1.42;;;;;;;11.78;100.00;98239.00;6109008;19;20111;-72
2023/09/23 07:27:29;;;;;;;2.88;1.27;;;;;;;11.77;100.00;98235.44;6110258;19;20393;-73
2023/09/23 07:29:32;;;;;;;3.60;1.42;;;;;;;11.82;100.00;98242.59;6109461;19;20014;-72
2023/09/23 07:31:33;;;;;;;2.30;1.55;;;;;;;11.90;100.00;98238.66;6110009;19;20022;-72
2023/09/23 07:33:33;;;;;;;2.85;1.27;;;;;;;11.93;100.00;98254.53;6108683;19;20017;-72
2023/09/23 07:35:35;;;;;;;2.15;1.48;;;;;;;12.01;100.00;98253.34;6110568;19;19998;-72
2023/09/23 07:37:35;;;;;;;2.90;1.70;;;;;;;12.05;100.00;98256.13;6109328;19;20334;-72
2023/09/23 07:39:35;;;;;;;3.97;1.38;;;;;;;12.12;100.00;98270.00;6109598;19;19998;-72
2023/09/23 07:41:36;;;;;;;3.92;1.33;;;;;;;12.12;100.00;98269.22;6110626;19;20013;-72
2023/09/23 07:43:39;;;;;;;1.95;1.25;;;;;;;12.13;100.00;98274.38;6109333;19;20741;-72
2023/09/23 07:45:39;;;;;;;4.78;1.38;;;;;;;12.22;100.00;98283.09;6110381;19;20010;-72
2023/09/23 07:47:40;;;;;;;2.40;1.25;;;;;;;12.26;100.00;98285.88;6107190;19;20019;-72
2023/09/23 07:49:40;;;;;;;2.42;1.50;;;;;;;12.35;100.00;98287.09;6108416;19;20014;-72
2023/09/23 07:51:40;;;;;;;2.75;1.40;;;;;;;12.46;100.00;98297.41;6106684;19;20003;-72
2023/09/23 07:53:41;;;;;;;4.00;1.40;;;;;;;12.48;100.00;98298.56;6107348;19;20037;-72
2023/09/23 07:55:43;;;;;;;2.90;1.48;;;;;;;12.54;100.00;98304.53;6107471;19;20483;-72
2023/09/23 07:57:43;;;;;;;1.60;1.13;;;;;;;12.57;100.00;98309.28;6107553;19;20035;-72
2023/09/23 07:59:44;;;;;;;2.42;1.85;;;;;;;12.60;100.00;98314.06;6105801;19;20082;-72
2023/09/23 08:01:44;;;;;;;4.45;1.40;;;;;;;12.66;100.00;98320.81;6107622;19;20040;-72
2023/09/23 08:03:44;;;;;;;3.35;1.17;;;;;;;12.69;100.00;98314.47;6107130;19;20002;-72
2023/09/23 08:05:45;;;;;;;2.15;1.20;;;;;;;12.69;100.00;98322.78;6107463;19;20019;-72
2023/09/23 08:07:45;;;;;;;3.47;1.42;;;;;;;12.70;100.00;98310.50;6107965;19;20006;-72
2023/09/23 08:09:45;;;;;;;1.25;1.15;;;;;;;12.75;100.00;98315.66;6105346;19;20238;-72
2023/09/23 08:11:46;;;;;;;3.17;1.40;;;;;;;12.82;100.00;98315.63;6108134;19;20027;-72
2023/09/23 08:13:46;;;;;;;5.03;1.33;;;;;;;12.80;100.00;98315.25;6106941;19;20070;-72
2023/09/23 08:15:47;;;;;;;1.67;1.08;;;;;;;12.82;100.00;98306.53;6108478;19;20006;-73
2023/09/23 08:17:47;;;;;;;2.05;1.20;;;;;;;12.86;100.00;98310.09;6106673;19;20011;-72
2023/09/23 08:19:48;;;;;;;3.72;1.30;;;;;;;12.91;100.00;98310.50;6106450;19;20031;-72
2023/09/23 08:21:48;;;;;;;1.50;1.17;;;;;;;12.99;100.00;98321.59;6107136;19;20014;-72
2023/09/23 08:23:49;;;;;;;4.15;1.42;;;;;;;12.98;100.00;98325.56;6107571;19;20011;-73
2023/09/23 08:25:49;;;;;;;1.40;1.20;;;;;;;13.04;100.00;98332.31;6104268;19;20704;-73
2023/09/23 08:27:50;;;;;;;2.08;1.30;;;;;;;13.17;100.00;98339.06;6107314;19;20464;-72
2023/09/23 08:29:50;;;;;;;2.83;1.38;;;;;;;13.21;100.00;98337.09;6106179;19;20021;-72
2023/09/23 08:31:51;;;;;;;1.85;1.40;;;;;;;13.26;100.00;98342.25;6106715;19;20553;-73
2023/09/23 08:33:51;;;;;;;3.50;1.70;;;;;;;13.26;100.00;98360.91;6107023;19;20066;-73
2023/09/23 08:35:51;;;;;;;2.35;1.40;;;;;;;13.34;100.00;98354.94;6106731;19;20011;-72
2023/09/23 08:37:52;;;;;;;4.32;1.60;;;;;;;13.33;100.00;98350.56;6105905;19;20006;-72
2023/09/23 08:39:52;;;;;;;6.05;2.08;;;;;;;13.36;100.00;98357.31;6104672;19;20010;-72
2023/09/23 08:41:53;;;;;;;1.83;1.20;;;;;;;13.37;100.00;98347.78;6106579;19;20462;-73
2023/09/23 08:43:58;;;;;;;2.25;1.20;;;;;;;13.31;100.00;98341.81;6106521;19;20010;-72
2023/09/23 08:45:58;;;;;;;1.90;1.20;;;;;;;13.27;100.00;98341.06;6106842;19;20014;-72
2023/09/23 08:48:01;;;;;;;4.05;1.60;;;;;;;13.29;100.00;98352.53;6104391;19;20011;-73
2023/09/23 08:50:01;;;;;;;5.57;1.40;;;;;;;13.32;100.00;98345.38;6103427;19;20006;-73
2023/09/23 08:52:03;;;;;;;1.45;1.00;;;;;;;13.44;100.00;98350.53;6108666;19;20024;-72
2023/09/23 08:54:03;;;;;;;1.65;1.20;;;;;;;13.48;100.00;98357.66;6106724;19;20015;-73
2023/09/23 08:56:06;;;;;;;3.00;1.20;;;;;;;13.47;100.00;98358.06;6104633;19;20503;-72
2023/09/23 08:58:07;;;;;;;2.28;1.25;;;;;;;13.51;100.00;98349.75;6107278;19;19999;-73
2023/09/23 09:00:08;;;;;;;1.83;1.00;;;;;;;13.47;100.00;98355.28;6106791;19;20330;-73
2023/09/23 09:02:10;;;;;;;2.03;1.27;;;;;;;13.46;100.00;98351.72;6107914;19;20011;-73
2023/09/23 09:04:15;;;;;;;2.70;1.30;;;;;;;13.52;100.00;98349.34;6111611;19;20434;-72
2023/09/23 09:06:19;;;;;;;2.45;1.35;;;;;;;13.54;100.00;98352.50;6113041;19;20042;-72
2023/09/23 09:08:19;;;;;;;1.45;1.10;;;;;;;13.59;100.00;98356.88;6109376;19;20007;-72
2023/09/23 09:10:20;;;;;;;3.00;1.42;;;;;;;13.57;100.00;98365.63;6112667;19;20380;-72
2023/09/23 09:12:20;;;;;;;6.38;1.40;;;;;;;13.55;100.00;98351.31;6114780;19;20010;-73
2023/09/23 09:14:22;;;;;;;1.67;1.10;;;;;;;13.62;100.00;98359.63;6113810;19;20463;-73
2023/09/23 09:16:22;;;;;;;3.67;1.25;;;;;;;13.60;100.00;98362.03;6114511;19;20082;-72
2023/09/23 09:18:23;;;;;;;2.60;1.23;;;;;;;13.62;100.00;98372.75;6112597;19;20006;-72
2023/09/23 09:20:24;;;;;;;4.47;1.30;;;;;;;13.67;100.00;98373.13;6113646;19;20011;-73
2023/09/23 09:22:24;;;;;;;2.08;1.33;;;;;;;13.76;100.00;98369.94;6113172;19;20006;-73
2023/09/23 09:24:24;;;;;;;4.03;1.30;;;;;;;13.79;100.00;98374.69;6113835;19;20013;-73